sensor_id;sensor_type;location;lat;lon;timestamp;temperature;humidity
2721;DHT22;1368;49.484;11.112;2022-07-23T00:00:55;20.80;99.90
2721;DHT22;1368;49.484;11.112;2022-07-23T00:03:21;20.60;99.90
2721;DHT22;1368;49.484;11.112;2022-07-23T00:05:47;20.40;99.90
2721;DHT22;1368;49.484;11.112;2022-07-23T00:08:12;20.30;99.90
2721;DHT22;1368;49.484;11.112;2022-07-23T00:10:38;20.20;99.90
2721;DHT22;1368;49.484;11.112;2022-07-23T00:13:03;20.40;99.90
2721;DHT22;1368;49.484;11.112;2022-07-23T00:15:29;20.30;99.90
2721;DHT22;1368;49.484;11.112;2022-07-23T00:17:55;20.40;99.90
2721;DHT22;1368;49.484;11.112;2022-07-23T00:20:20;20.50;99.90
2721;DHT22;1368;49.484;11.112;2022-07-23T00:22:47;20.60;99.90
2721;DHT22;1368;49.484;11.112;2022-07-23T00:25:14;20.70;99.90
2721;DHT22;1368;49.484;11.112;2022-07-23T00:27:39;20.60;99.90
2721;DHT22;1368;49.484;11.112;2022-07-23T00:30:05;20.70;99.90
2721;DHT22;1368;49.484;11.112;2022-07-23T00:32:31;20.80;99.90
2721;DHT22;1368;49.484;11.112;2022-07-23T00:34:57;20.70;99.90
2721;DHT22;1368;49.484;11.112;2022-07-23T00:37:22;20.60;99.90
2721;DHT22;1368;49.484;11.112;2022-07-23T00:39:48;20.80;99.90
2721;DHT22;1368;49.484;11.112;2022-07-23T00:42:13;21.60;99.90
2721;DHT22;1368;49.484;11.112;2022-07-23T00:44:39;21.00;99.90
2721;DHT22;1368;49.484;11.112;2022-07-23T00:47:05;20.80;99.90
2721;DHT22;1368;49.484;11.112;2022-07-23T00:49:31;20.90;99.90
2721;DHT22;1368;49.484;11.112;2022-07-23T00:51:57;21.60;99.90
2721;DHT22;1368;49.484;11.112;2022-07-23T00:54:26;21.30;99.90
2721;DHT22;1368;49.484;11.112;2022-07-23T00:56:53;21.10;99.90
2721;DHT22;1368;49.484;11.112;2022-07-23T00:59:19;21.10;99.90
2721;DHT22;1368;49.484;11.112;2022-07-23T01:01:44;21.20;99.90
2721;DHT22;1368;49.484;11.112;2022-07-23T01:04:12;21.00;99.90
2721;DHT22;1368;49.484;11.112;2022-07-23T01:06:38;21.10;99.90
2721;DHT22;1368;49.484;11.112;2022-07-23T01:09:05;21.20;99.90
2721;DHT22;1368;49.484;11.112;2022-07-23T01:11:35;21.40;99.90
2721;DHT22;1368;49.484;11.112;2022-07-23T01:14:12;21.20;99.90
2721;DHT22;1368;49.484;11.112;2022-07-23T01:16:38;21.30;99.90
2721;DHT22;1368;49.484;11.112;2022-07-23T01:19:03;21.30;99.90
2721;DHT22;1368;49.484;11.112;2022-07-23T01:21:42;21.00;99.90
2721;DHT22;1368;49.484;11.112;2022-07-23T01:24:09;21.30;99.90
2721;DHT22;1368;49.484;11.112;2022-07-23T01:26:35;21.40;99.90
2721;DHT22;1368;49.484;11.112;2022-07-23T01:29:01;21.60;99.90
2721;DHT22;1368;49.484;11.112;2022-07-23T01:31:27;21.80;99.90
2721;DHT22;1368;49.484;11.112;2022-07-23T01:33:53;21.80;99.90
2721;DHT22;1368;49.484;11.112;2022-07-23T01:36:19;21.90;99.90
2721;DHT22;1368;49.484;11.112;2022-07-23T01:38:44;21.90;99.90
2721;DHT22;1368;49.484;11.112;2022-07-23T01:41:10;22.00;99.90
2721;DHT22;1368;49.484;11.112;2022-07-23T01:43:35;22.00;99.90
2721;DHT22;1368;49.484;11.112;2022-07-23T01:46:01;21.70;99.90
2721;DHT22;1368;49.484;11.112;2022-07-23T01:48:27;21.90;99.90
2721;DHT22;1368;49.484;11.112;2022-07-23T01:50:52;22.00;99.90
2721;DHT22;1368;49.484;11.112;2022-07-23T01:53:18;22.10;99.90
2721;DHT22;1368;49.484;11.112;2022-07-23T01:55:43;22.10;99.90
2721;DHT22;1368;49.484;11.112;2022-07-23T01:58:09;21.80;99.90
2721;DHT22;1368;49.484;11.112;2022-07-23T02:00:35;21.80;99.90
2721;DHT22;1368;49.484;11.112;2022-07-23T02:03:00;21.80;99.90
2721;DHT22;1368;49.484;11.112;2022-07-23T02:05:27;22.00;99.90
2721;DHT22;1368;49.484;11.112;2022-07-23T02:07:57;22.00;99.90
2721;DHT22;1368;49.484;11.112;2022-07-23T02:10:23;22.10;99.90
2721;DHT22;1368;49.484;11.112;2022-07-23T02:12:49;22.20;99.90
2721;DHT22;1368;49.484;11.112;2022-07-23T02:15:15;22.30;99.90
2721;DHT22;1368;49.484;11.112;2022-07-23T02:17:41;22.30;99.90
2721;DHT22;1368;49.484;11.112;2022-07-23T02:20:07;22.30;99.90
2721;DHT22;1368;49.484;11.112;2022-07-23T02:22:33;22.40;99.90
2721;DHT22;1368;49.484;11.112;2022-07-23T02:24:59;22.40;99.90
2721;DHT22;1368;49.484;11.112;2022-07-23T02:27:24;22.40;99.90
2721;DHT22;1368;49.484;11.112;2022-07-23T02:29:50;22.40;99.90
2721;DHT22;1368;49.484;11.112;2022-07-23T02:32:16;22.50;99.90
2721;DHT22;1368;49.484;11.112;2022-07-23T02:34:41;22.20;99.90
2721;DHT22;1368;49.484;11.112;2022-07-23T02:37:07;21.80;99.90
2721;DHT22;1368;49.484;11.112;2022-07-23T02:39:34;21.20;99.90
2721;DHT22;1368;49.484;11.112;2022-07-23T02:42:00;21.10;99.90
2721;DHT22;1368;49.484;11.112;2022-07-23T02:44:26;21.00;99.90
2721;DHT22;1368;49.484;11.112;2022-07-23T02:46:51;21.00;99.90
2721;DHT22;1368;49.484;11.112;2022-07-23T02:49:17;21.00;99.90
2721;DHT22;1368;49.484;11.112;2022-07-23T02:51:43;20.90;99.90
2721;DHT22;1368;49.484;11.112;2022-07-23T02:54:08;20.70;99.90
2721;DHT22;1368;49.484;11.112;2022-07-23T02:56:34;20.70;99.90
2721;DHT22;1368;49.484;11.112;2022-07-23T02:58:59;20.50;99.90
2721;DHT22;1368;49.484;11.112;2022-07-23T03:01:25;20.50;99.90
2721;DHT22;1368;49.484;11.112;2022-07-23T03:03:51;20.30;99.90
2721;DHT22;1368;49.484;11.112;2022-07-23T03:06:17;20.00;99.90
2721;DHT22;1368;49.484;11.112;2022-07-23T03:08:42;19.90;99.90
2721;DHT22;1368;49.484;11.112;2022-07-23T03:11:08;19.90;99.90
2721;DHT22;1368;49.484;11.112;2022-07-23T03:13:37;19.90;99.90
2721;DHT22;1368;49.484;11.112;2022-07-23T03:16:03;19.80;99.90
2721;DHT22;1368;49.484;11.112;2022-07-23T03:18:28;19.60;99.90
2721;DHT22;1368;49.484;11.112;2022-07-23T03:20:54;19.50;99.90
2721;DHT22;1368;49.484;11.112;2022-07-23T03:23:20;19.80;99.90
2721;DHT22;1368;49.484;11.112;2022-07-23T03:25:45;19.40;99.90
2721;DHT22;1368;49.484;11.112;2022-07-23T03:28:16;19.40;99.90
2721;DHT22;1368;49.484;11.112;2022-07-23T03:30:46;19.40;99.90
2721;DHT22;1368;49.484;11.112;2022-07-23T03:33:16;19.40;99.90
2721;DHT22;1368;49.484;11.112;2022-07-23T03:35:46;19.40;99.90
2721;DHT22;1368;49.484;11.112;2022-07-23T03:38:12;19.50;99.90
2721;DHT22;1368;49.484;11.112;2022-07-23T03:40:38;19.40;99.90
2721;DHT22;1368;49.484;11.112;2022-07-23T03:43:04;19.30;99.90
2721;DHT22;1368;49.484;11.112;2022-07-23T03:45:30;19.40;99.90
2721;DHT22;1368;49.484;11.112;2022-07-23T03:47:55;19.70;99.90
2721;DHT22;1368;49.484;11.112;2022-07-23T03:50:21;19.80;99.90
2721;DHT22;1368;49.484;11.112;2022-07-23T03:52:47;19.80;99.90
2721;DHT22;1368;49.484;11.112;2022-07-23T03:55:12;19.50;99.90
2721;DHT22;1368;49.484;11.112;2022-07-23T03:57:38;19.40;99.90
2721;DHT22;1368;49.484;11.112;2022-07-23T04:00:06;19.40;99.90
2721;DHT22;1368;49.484;11.112;2022-07-23T04:02:33;19.70;99.90
2721;DHT22;1368;49.484;11.112;2022-07-23T04:04:59;19.80;99.90
2721;DHT22;1368;49.484;11.112;2022-07-23T04:07:25;20.30;99.90
2721;DHT22;1368;49.484;11.112;2022-07-23T04:09:51;19.80;99.90
2721;DHT22;1368;49.484;11.112;2022-07-23T04:12:16;19.50;99.90
2721;DHT22;1368;49.484;11.112;2022-07-23T04:14:42;19.40;99.90
2721;DHT22;1368;49.484;11.112;2022-07-23T04:17:08;19.50;99.90
2721;DHT22;1368;49.484;11.112;2022-07-23T04:19:34;19.60;99.90
2721;DHT22;1368;49.484;11.112;2022-07-23T04:22:05;19.50;99.90
2721;DHT22;1368;49.484;11.112;2022-07-23T04:24:31;19.60;99.90
2721;DHT22;1368;49.484;11.112;2022-07-23T04:26:57;19.60;99.90
2721;DHT22;1368;49.484;11.112;2022-07-23T04:29:23;19.70;99.90
2721;DHT22;1368;49.484;11.112;2022-07-23T04:31:48;20.00;99.90
2721;DHT22;1368;49.484;11.112;2022-07-23T04:34:14;20.10;99.90
2721;DHT22;1368;49.484;11.112;2022-07-23T04:36:40;20.30;99.90
2721;DHT22;1368;49.484;11.112;2022-07-23T04:39:05;20.70;99.90
2721;DHT22;1368;49.484;11.112;2022-07-23T04:41:31;20.90;99.90
2721;DHT22;1368;49.484;11.112;2022-07-23T04:43:56;21.30;99.90
2721;DHT22;1368;49.484;11.112;2022-07-23T04:46:22;21.50;99.90
2721;DHT22;1368;49.484;11.112;2022-07-23T04:48:47;21.80;99.90
2721;DHT22;1368;49.484;11.112;2022-07-23T04:51:13;22.10;99.90
2721;DHT22;1368;49.484;11.112;2022-07-23T04:53:39;22.30;99.90
2721;DHT22;1368;49.484;11.112;2022-07-23T04:56:04;22.40;99.90
2721;DHT22;1368;49.484;11.112;2022-07-23T04:58:30;22.60;99.90
2721;DHT22;1368;49.484;11.112;2022-07-23T05:00:57;22.70;99.90
2721;DHT22;1368;49.484;11.112;2022-07-23T05:03:23;22.80;99.90
2721;DHT22;1368;49.484;11.112;2022-07-23T05:05:49;23.20;99.90
2721;DHT22;1368;49.484;11.112;2022-07-23T05:08:15;23.50;99.90
2721;DHT22;1368;49.484;11.112;2022-07-23T05:10:41;23.80;99.90
2721;DHT22;1368;49.484;11.112;2022-07-23T05:13:06;24.20;99.90
2721;DHT22;1368;49.484;11.112;2022-07-23T05:15:32;24.60;99.90
2721;DHT22;1368;49.484;11.112;2022-07-23T05:17:57;24.50;99.90
2721;DHT22;1368;49.484;11.112;2022-07-23T05:20:24;24.30;99.90
2721;DHT22;1368;49.484;11.112;2022-07-23T05:22:50;24.70;99.90
2721;DHT22;1368;49.484;11.112;2022-07-23T05:25:15;25.40;99.90
2721;DHT22;1368;49.484;11.112;2022-07-23T05:27:41;26.30;99.90
2721;DHT22;1368;49.484;11.112;2022-07-23T05:30:07;27.30;99.90
2721;DHT22;1368;49.484;11.112;2022-07-23T05:32:33;28.30;99.90
2721;DHT22;1368;49.484;11.112;2022-07-23T05:34:59;29.00;99.90
2721;DHT22;1368;49.484;11.112;2022-07-23T05:37:24;29.50;98.70
2721;DHT22;1368;49.484;11.112;2022-07-23T05:39:50;29.50;98.00
2721;DHT22;1368;49.484;11.112;2022-07-23T05:42:16;29.80;98.40
2721;DHT22;1368;49.484;11.112;2022-07-23T05:44:41;30.40;96.70
2721;DHT22;1368;49.484;11.112;2022-07-23T05:47:07;30.50;95.40
2721;DHT22;1368;49.484;11.112;2022-07-23T05:49:32;30.30;95.40
2721;DHT22;1368;49.484;11.112;2022-07-23T05:51:58;30.60;95.50
2721;DHT22;1368;49.484;11.112;2022-07-23T05:54:24;31.30;94.30
2721;DHT22;1368;49.484;11.112;2022-07-23T05:56:50;32.10;94.30
2721;DHT22;1368;49.484;11.112;2022-07-23T05:59:15;32.60;91.30
2721;DHT22;1368;49.484;11.112;2022-07-23T06:01:41;33.40;91.20
2721;DHT22;1368;49.484;11.112;2022-07-23T06:04:07;34.00;89.70
2721;DHT22;1368;49.484;11.112;2022-07-23T06:06:33;34.30;88.60
2721;DHT22;1368;49.484;11.112;2022-07-23T06:08:58;34.00;86.60
2721;DHT22;1368;49.484;11.112;2022-07-23T06:11:24;33.50;87.50
2721;DHT22;1368;49.484;11.112;2022-07-23T06:13:49;33.00;86.70
2721;DHT22;1368;49.484;11.112;2022-07-23T06:16:15;32.50;88.20
2721;DHT22;1368;49.484;11.112;2022-07-23T06:18:41;32.40;89.40
2721;DHT22;1368;49.484;11.112;2022-07-23T06:21:06;32.60;88.60
2721;DHT22;1368;49.484;11.112;2022-07-23T06:23:32;33.20;87.50
2721;DHT22;1368;49.484;11.112;2022-07-23T06:25:57;34.00;86.40
2721;DHT22;1368;49.484;11.112;2022-07-23T06:28:23;34.50;83.60
2721;DHT22;1368;49.484;11.112;2022-07-23T06:30:48;35.00;80.40
2721;DHT22;1368;49.484;11.112;2022-07-23T06:33:14;35.80;78.80
2721;DHT22;1368;49.484;11.112;2022-07-23T06:35:39;36.30;76.50
2721;DHT22;1368;49.484;11.112;2022-07-23T06:38:05;36.70;75.60
2721;DHT22;1368;49.484;11.112;2022-07-23T06:40:31;37.10;72.60
2721;DHT22;1368;49.484;11.112;2022-07-23T06:42:56;37.40;71.00
2721;DHT22;1368;49.484;11.112;2022-07-23T06:45:22;37.70;69.60
2721;DHT22;1368;49.484;11.112;2022-07-23T06:47:48;37.90;67.40
2721;DHT22;1368;49.484;11.112;2022-07-23T06:50:13;37.70;68.00
2721;DHT22;1368;49.484;11.112;2022-07-23T06:52:39;38.00;67.00
2721;DHT22;1368;49.484;11.112;2022-07-23T06:55:05;38.30;66.70
2721;DHT22;1368;49.484;11.112;2022-07-23T06:57:30;38.30;65.70
2721;DHT22;1368;49.484;11.112;2022-07-23T06:59:56;38.70;65.30
2721;DHT22;1368;49.484;11.112;2022-07-23T07:02:22;39.00;64.80
2721;DHT22;1368;49.484;11.112;2022-07-23T07:04:47;39.70;63.20
2721;DHT22;1368;49.484;11.112;2022-07-23T07:07:13;40.40;61.50
2721;DHT22;1368;49.484;11.112;2022-07-23T07:09:38;40.70;58.90
2721;DHT22;1368;49.484;11.112;2022-07-23T07:12:04;40.00;59.50
2721;DHT22;1368;49.484;11.112;2022-07-23T07:14:30;38.80;60.00
2721;DHT22;1368;49.484;11.112;2022-07-23T07:16:56;37.80;61.20
2721;DHT22;1368;49.484;11.112;2022-07-23T07:19:21;36.60;64.00
2721;DHT22;1368;49.484;11.112;2022-07-23T07:21:47;35.50;66.50
2721;DHT22;1368;49.484;11.112;2022-07-23T07:24:12;34.80;67.00
2721;DHT22;1368;49.484;11.112;2022-07-23T07:26:38;34.30;69.00
2721;DHT22;1368;49.484;11.112;2022-07-23T07:29:05;33.70;70.30
2721;DHT22;1368;49.484;11.112;2022-07-23T07:31:30;33.30;71.00
2721;DHT22;1368;49.484;11.112;2022-07-23T07:33:56;32.90;71.80
2721;DHT22;1368;49.484;11.112;2022-07-23T07:36:22;32.60;72.90
2721;DHT22;1368;49.484;11.112;2022-07-23T07:38:48;31.80;75.40
2721;DHT22;1368;49.484;11.112;2022-07-23T07:41:14;31.70;75.90
2721;DHT22;1368;49.484;11.112;2022-07-23T07:43:39;31.60;76.30
2721;DHT22;1368;49.484;11.112;2022-07-23T07:46:05;31.60;76.30
2721;DHT22;1368;49.484;11.112;2022-07-23T07:48:36;31.30;77.10
2721;DHT22;1368;49.484;11.112;2022-07-23T07:51:02;31.30;78.00
2721;DHT22;1368;49.484;11.112;2022-07-23T07:53:27;31.10;77.40
2721;DHT22;1368;49.484;11.112;2022-07-23T07:55:53;30.90;78.70
2721;DHT22;1368;49.484;11.112;2022-07-23T07:58:18;30.60;79.50
2721;DHT22;1368;49.484;11.112;2022-07-23T08:00:44;30.60;91.70
2721;DHT22;1368;49.484;11.112;2022-07-23T08:03:10;29.90;93.80
2721;DHT22;1368;49.484;11.112;2022-07-23T08:05:35;29.00;96.50
2721;DHT22;1368;49.484;11.112;2022-07-23T08:08:01;28.20;98.10
2721;DHT22;1368;49.484;11.112;2022-07-23T08:10:27;27.60;99.90
2721;DHT22;1368;49.484;11.112;2022-07-23T08:12:55;27.20;99.90
2721;DHT22;1368;49.484;11.112;2022-07-23T08:15:23;27.10;99.90
2721;DHT22;1368;49.484;11.112;2022-07-23T08:17:49;27.30;99.90
2721;DHT22;1368;49.484;11.112;2022-07-23T08:20:17;27.40;99.90
2721;DHT22;1368;49.484;11.112;2022-07-23T08:22:47;27.50;99.90
2721;DHT22;1368;49.484;11.112;2022-07-23T08:25:14;27.60;99.90
2721;DHT22;1368;49.484;11.112;2022-07-23T08:27:40;27.60;99.90
2721;DHT22;1368;49.484;11.112;2022-07-23T08:30:06;27.60;99.90
2721;DHT22;1368;49.484;11.112;2022-07-23T08:32:32;27.80;99.90
2721;DHT22;1368;49.484;11.112;2022-07-23T08:34:58;27.80;99.90
2721;DHT22;1368;49.484;11.112;2022-07-23T08:37:23;28.00;99.90
2721;DHT22;1368;49.484;11.112;2022-07-23T08:39:49;28.00;99.90
2721;DHT22;1368;49.484;11.112;2022-07-23T08:42:14;27.80;99.90
2721;DHT22;1368;49.484;11.112;2022-07-23T08:44:45;27.20;99.90
2721;DHT22;1368;49.484;11.112;2022-07-23T08:47:14;27.10;99.90
2721;DHT22;1368;49.484;11.112;2022-07-23T08:49:41;27.10;99.90
2721;DHT22;1368;49.484;11.112;2022-07-23T08:52:07;27.10;99.90
2721;DHT22;1368;49.484;11.112;2022-07-23T08:54:34;27.00;99.90
2721;DHT22;1368;49.484;11.112;2022-07-23T08:57:00;26.90;99.90
2721;DHT22;1368;49.484;11.112;2022-07-23T08:59:25;26.90;99.90
2721;DHT22;1368;49.484;11.112;2022-07-23T09:01:52;26.80;99.90
2721;DHT22;1368;49.484;11.112;2022-07-23T09:04:17;26.90;99.90
2721;DHT22;1368;49.484;11.112;2022-07-23T09:06:43;26.80;99.90
2721;DHT22;1368;49.484;11.112;2022-07-23T09:09:17;26.60;99.90
2721;DHT22;1368;49.484;11.112;2022-07-23T09:11:46;26.30;99.90
2721;DHT22;1368;49.484;11.112;2022-07-23T09:14:12;26.10;99.90
2721;DHT22;1368;49.484;11.112;2022-07-23T09:16:38;26.00;99.90
2721;DHT22;1368;49.484;11.112;2022-07-23T09:19:05;25.90;99.90
2721;DHT22;1368;49.484;11.112;2022-07-23T09:21:36;25.80;99.90
2721;DHT22;1368;49.484;11.112;2022-07-23T09:24:12;25.80;99.90
2721;DHT22;1368;49.484;11.112;2022-07-23T09:26:42;25.70;99.90
2721;DHT22;1368;49.484;11.112;2022-07-23T09:29:20;25.40;99.90
2721;DHT22;1368;49.484;11.112;2022-07-23T09:34:23;25.30;99.90
2721;DHT22;1368;49.484;11.112;2022-07-23T09:36:53;25.20;99.90
2721;DHT22;1368;49.484;11.112;2022-07-23T09:39:31;25.00;99.90
2721;DHT22;1368;49.484;11.112;2022-07-23T09:42:12;24.60;99.90
2721;DHT22;1368;49.484;11.112;2022-07-23T09:44:42;24.40;99.90
2721;DHT22;1368;49.484;11.112;2022-07-23T09:47:08;24.50;99.90
2721;DHT22;1368;49.484;11.112;2022-07-23T09:49:33;23.80;99.90
2721;DHT22;1368;49.484;11.112;2022-07-23T09:52:00;23.10;99.90
2721;DHT22;1368;49.484;11.112;2022-07-23T09:54:31;22.90;99.90
2721;DHT22;1368;49.484;11.112;2022-07-23T09:57:17;23.10;99.90
2721;DHT22;1368;49.484;11.112;2022-07-23T09:59:44;22.90;99.90
2721;DHT22;1368;49.484;11.112;2022-07-23T10:02:12;22.50;99.90
2721;DHT22;1368;49.484;11.112;2022-07-23T10:04:38;22.60;99.90
2721;DHT22;1368;49.484;11.112;2022-07-23T10:07:06;22.70;99.90
2721;DHT22;1368;49.484;11.112;2022-07-23T10:09:35;22.80;99.90
2721;DHT22;1368;49.484;11.112;2022-07-23T10:12:04;23.10;99.90
2721;DHT22;1368;49.484;11.112;2022-07-23T10:14:37;23.30;99.90
2721;DHT22;1368;49.484;11.112;2022-07-23T10:17:04;23.40;99.90
2721;DHT22;1368;49.484;11.112;2022-07-23T10:19:31;23.50;99.90
2721;DHT22;1368;49.484;11.112;2022-07-23T10:22:01;23.50;99.90
2721;DHT22;1368;49.484;11.112;2022-07-23T10:27:36;23.60;99.90
2721;DHT22;1368;49.484;11.112;2022-07-23T10:30:14;23.40;99.90
2721;DHT22;1368;49.484;11.112;2022-07-23T10:35:31;22.60;99.90
2721;DHT22;1368;49.484;11.112;2022-07-23T10:38:19;22.10;99.90
2721;DHT22;1368;49.484;11.112;2022-07-23T10:40:58;22.10;99.90
2721;DHT22;1368;49.484;11.112;2022-07-23T10:43:25;22.20;99.90
2721;DHT22;1368;49.484;11.112;2022-07-23T10:45:51;22.00;99.90
2721;DHT22;1368;49.484;11.112;2022-07-23T10:48:20;21.90;99.90
2721;DHT22;1368;49.484;11.112;2022-07-23T10:51:09;22.10;99.90
2721;DHT22;1368;49.484;11.112;2022-07-23T10:57:04;22.90;99.90
2721;DHT22;1368;49.484;11.112;2022-07-23T10:59:04;23.00;99.90
2721;DHT22;1368;49.484;11.112;2022-07-23T11:01:34;23.20;99.90
2721;DHT22;1368;49.484;11.112;2022-07-23T11:04:00;23.50;99.90
2721;DHT22;1368;49.484;11.112;2022-07-23T11:17:26;23.90;99.90
2721;DHT22;1368;49.484;11.112;2022-07-23T11:22:40;23.80;99.90
2721;DHT22;1368;49.484;11.112;2022-07-23T11:27:47;23.60;99.90
2721;DHT22;1368;49.484;11.112;2022-07-23T11:30:37;23.80;99.90
2721;DHT22;1368;49.484;11.112;2022-07-23T11:35:33;24.60;99.90
2721;DHT22;1368;49.484;11.112;2022-07-23T11:38:22;24.90;99.90
2721;DHT22;1368;49.484;11.112;2022-07-23T11:40:53;24.90;99.90
2721;DHT22;1368;49.484;11.112;2022-07-23T11:43:20;25.10;99.90
2721;DHT22;1368;49.484;11.112;2022-07-23T11:45:50;25.20;99.90
2721;DHT22;1368;49.484;11.112;2022-07-23T11:48:21;25.20;99.90
2721;DHT22;1368;49.484;11.112;2022-07-23T11:50:48;25.60;99.90
2721;DHT22;1368;49.484;11.112;2022-07-23T11:53:24;26.00;99.90
2721;DHT22;1368;49.484;11.112;2022-07-23T11:55:51;26.50;99.90
2721;DHT22;1368;49.484;11.112;2022-07-23T11:58:17;26.80;99.90
2721;DHT22;1368;49.484;11.112;2022-07-23T12:00:43;26.80;99.90
2721;DHT22;1368;49.484;11.112;2022-07-23T12:03:08;27.20;99.90
2721;DHT22;1368;49.484;11.112;2022-07-23T12:05:36;27.80;99.90
2721;DHT22;1368;49.484;11.112;2022-07-23T12:08:04;28.50;99.90
2721;DHT22;1368;49.484;11.112;2022-07-23T12:13:04;29.30;99.90
2721;DHT22;1368;49.484;11.112;2022-07-23T12:15:41;29.50;99.90
2721;DHT22;1368;49.484;11.112;2022-07-23T12:18:08;29.80;99.90
2721;DHT22;1368;49.484;11.112;2022-07-23T12:20:46;29.70;99.90
2721;DHT22;1368;49.484;11.112;2022-07-23T12:23:14;30.00;99.90
2721;DHT22;1368;49.484;11.112;2022-07-23T12:25:43;30.10;99.90
2721;DHT22;1368;49.484;11.112;2022-07-23T12:30:46;29.20;99.90
2721;DHT22;1368;49.484;11.112;2022-07-23T12:33:14;29.20;99.90
2721;DHT22;1368;49.484;11.112;2022-07-23T12:35:43;29.10;99.90
2721;DHT22;1368;49.484;11.112;2022-07-23T12:38:12;29.10;99.90
2721;DHT22;1368;49.484;11.112;2022-07-23T12:43:27;29.20;99.90
2721;DHT22;1368;49.484;11.112;2022-07-23T12:46:10;29.40;99.90
2721;DHT22;1368;49.484;11.112;2022-07-23T12:48:52;29.70;99.90
2721;DHT22;1368;49.484;11.112;2022-07-23T12:51:22;29.70;99.90
2721;DHT22;1368;49.484;11.112;2022-07-23T12:53:49;29.70;99.90
2721;DHT22;1368;49.484;11.112;2022-07-23T12:58:48;30.00;99.90
2721;DHT22;1368;49.484;11.112;2022-07-23T13:06:20;30.30;99.90
2721;DHT22;1368;49.484;11.112;2022-07-23T13:08:46;30.70;99.90
2721;DHT22;1368;49.484;11.112;2022-07-23T13:11:12;30.90;99.50
2721;DHT22;1368;49.484;11.112;2022-07-23T13:13:38;30.40;98.20
2721;DHT22;1368;49.484;11.112;2022-07-23T13:16:03;30.30;98.70
2721;DHT22;1368;49.484;11.112;2022-07-23T13:18:29;30.40;98.30
2721;DHT22;1368;49.484;11.112;2022-07-23T13:20:56;30.30;98.20
2721;DHT22;1368;49.484;11.112;2022-07-23T13:23:22;30.20;97.50
2721;DHT22;1368;49.484;11.112;2022-07-23T13:25:49;30.30;98.10
2721;DHT22;1368;49.484;11.112;2022-07-23T13:28:15;30.80;97.70
2721;DHT22;1368;49.484;11.112;2022-07-23T13:30:41;31.00;96.70
2721;DHT22;1368;49.484;11.112;2022-07-23T13:33:07;30.90;97.30
2721;DHT22;1368;49.484;11.112;2022-07-23T13:35:35;30.90;97.10
2721;DHT22;1368;49.484;11.112;2022-07-23T13:38:02;31.00;96.40
2721;DHT22;1368;49.484;11.112;2022-07-23T13:40:27;30.80;96.40
2721;DHT22;1368;49.484;11.112;2022-07-23T13:42:53;30.90;95.80
2721;DHT22;1368;49.484;11.112;2022-07-23T13:45:19;31.10;96.30
2721;DHT22;1368;49.484;11.112;2022-07-23T13:47:44;31.30;95.90
2721;DHT22;1368;49.484;11.112;2022-07-23T13:50:10;31.40;95.20
2721;DHT22;1368;49.484;11.112;2022-07-23T13:52:36;31.50;95.20
2721;DHT22;1368;49.484;11.112;2022-07-23T13:55:03;31.70;95.00
2721;DHT22;1368;49.484;11.112;2022-07-23T13:57:30;31.80;95.00
2721;DHT22;1368;49.484;11.112;2022-07-23T13:59:56;32.10;94.30
2721;DHT22;1368;49.484;11.112;2022-07-23T14:02:21;32.00;93.30
2721;DHT22;1368;49.484;11.112;2022-07-23T14:04:48;31.70;93.70
2721;DHT22;1368;49.484;11.112;2022-07-23T14:07:14;31.90;94.40
2721;DHT22;1368;49.484;11.112;2022-07-23T14:09:39;32.10;93.70
2721;DHT22;1368;49.484;11.112;2022-07-23T14:12:05;32.30;93.50
2721;DHT22;1368;49.484;11.112;2022-07-23T14:14:31;32.50;93.60
2721;DHT22;1368;49.484;11.112;2022-07-23T14:16:58;32.50;91.80
2721;DHT22;1368;49.484;11.112;2022-07-23T14:19:23;32.50;92.80
2721;DHT22;1368;49.484;11.112;2022-07-23T14:21:49;32.30;93.20
2721;DHT22;1368;49.484;11.112;2022-07-23T14:24:15;32.30;92.50
2721;DHT22;1368;49.484;11.112;2022-07-23T14:26:41;32.50;92.70
2721;DHT22;1368;49.484;11.112;2022-07-23T14:29:07;31.90;91.20
2721;DHT22;1368;49.484;11.112;2022-07-23T14:31:33;31.80;92.60
2721;DHT22;1368;49.484;11.112;2022-07-23T14:33:59;31.70;92.90
2721;DHT22;1368;49.484;11.112;2022-07-23T14:36:25;32.00;92.80
2721;DHT22;1368;49.484;11.112;2022-07-23T14:38:51;32.20;92.40
2721;DHT22;1368;49.484;11.112;2022-07-23T14:41:17;32.00;92.80
2721;DHT22;1368;49.484;11.112;2022-07-23T14:43:43;32.10;92.60
2721;DHT22;1368;49.484;11.112;2022-07-23T14:46:09;31.90;91.30
2721;DHT22;1368;49.484;11.112;2022-07-23T14:48:36;32.00;91.70
2721;DHT22;1368;49.484;11.112;2022-07-23T14:51:03;32.20;91.40
2721;DHT22;1368;49.484;11.112;2022-07-23T14:53:29;32.50;91.20
2721;DHT22;1368;49.484;11.112;2022-07-23T14:55:55;33.00;90.40
2721;DHT22;1368;49.484;11.112;2022-07-23T14:58:22;33.40;88.50
2721;DHT22;1368;49.484;11.112;2022-07-23T15:00:48;33.40;88.70
2721;DHT22;1368;49.484;11.112;2022-07-23T15:03:14;33.00;88.80
2721;DHT22;1368;49.484;11.112;2022-07-23T15:05:39;32.60;89.00
2721;DHT22;1368;49.484;11.112;2022-07-23T15:08:05;32.60;88.90
2721;DHT22;1368;49.484;11.112;2022-07-23T15:10:30;32.40;87.00
2721;DHT22;1368;49.484;11.112;2022-07-23T15:12:56;32.20;85.80
2721;DHT22;1368;49.484;11.112;2022-07-23T15:15:21;32.20;84.90
2721;DHT22;1368;49.484;11.112;2022-07-23T15:17:47;31.80;86.70
2721;DHT22;1368;49.484;11.112;2022-07-23T15:20:13;31.70;85.50
2721;DHT22;1368;49.484;11.112;2022-07-23T15:22:38;31.60;84.80
2721;DHT22;1368;49.484;11.112;2022-07-23T15:25:05;31.40;83.50
2721;DHT22;1368;49.484;11.112;2022-07-23T15:27:30;31.40;86.00
2721;DHT22;1368;49.484;11.112;2022-07-23T15:29:56;31.60;83.90
2721;DHT22;1368;49.484;11.112;2022-07-23T15:32:22;31.70;83.00
2721;DHT22;1368;49.484;11.112;2022-07-23T15:34:50;31.60;82.60
2721;DHT22;1368;49.484;11.112;2022-07-23T15:37:16;31.90;82.40
2721;DHT22;1368;49.484;11.112;2022-07-23T15:39:41;32.00;82.20
2721;DHT22;1368;49.484;11.112;2022-07-23T15:42:07;31.90;78.40
2721;DHT22;1368;49.484;11.112;2022-07-23T15:44:33;31.90;76.50
2721;DHT22;1368;49.484;11.112;2022-07-23T15:46:58;32.00;76.70
2721;DHT22;1368;49.484;11.112;2022-07-23T15:49:24;32.10;77.00
2721;DHT22;1368;49.484;11.112;2022-07-23T15:51:49;32.10;77.10
2721;DHT22;1368;49.484;11.112;2022-07-23T15:54:15;32.20;74.80
2721;DHT22;1368;49.484;11.112;2022-07-23T15:56:41;32.10;75.00
2721;DHT22;1368;49.484;11.112;2022-07-23T15:59:08;32.00;74.70
2721;DHT22;1368;49.484;11.112;2022-07-23T16:01:33;32.00;75.30
2721;DHT22;1368;49.484;11.112;2022-07-23T16:03:59;31.60;76.40
2721;DHT22;1368;49.484;11.112;2022-07-23T16:06:26;31.40;78.30
2721;DHT22;1368;49.484;11.112;2022-07-23T16:08:52;31.40;79.40
2721;DHT22;1368;49.484;11.112;2022-07-23T16:11:18;31.30;79.90
2721;DHT22;1368;49.484;11.112;2022-07-23T16:13:44;31.20;77.70
2721;DHT22;1368;49.484;11.112;2022-07-23T16:16:10;31.00;79.70
2721;DHT22;1368;49.484;11.112;2022-07-23T16:18:37;31.10;79.60
2721;DHT22;1368;49.484;11.112;2022-07-23T16:21:03;31.00;79.80
2721;DHT22;1368;49.484;11.112;2022-07-23T16:23:29;31.00;79.90
2721;DHT22;1368;49.484;11.112;2022-07-23T16:25:54;30.90;80.30
2721;DHT22;1368;49.484;11.112;2022-07-23T16:28:20;30.80;80.60